createdAt,value
2022-08-09T00:01:23.050Z,100894.94
2022-08-09T00:04:03.473Z,100898.72
2022-08-09T00:06:38.678Z,100887.63
2022-08-09T00:09:13.366Z,100891.41
2022-08-09T00:12:03.697Z,100888.69
2022-08-09T00:14:38.204Z,100892.19
2022-08-09T00:17:06.968Z,100889.06
2022-08-09T00:19:35.551Z,100898.91
2022-08-09T00:22:04.426Z,100898.47
2022-08-09T00:24:32.723Z,100898.25
2022-08-09T00:27:01.952Z,100890.00
2022-08-09T00:30:09.952Z,100893.63
2022-08-09T00:32:26.976Z,100883.38
2022-08-09T00:35:05.516Z,100880.91
2022-08-09T00:37:33.489Z,100874.09
2022-08-09T00:40:12.293Z,100873.97
2022-08-09T00:44:10.445Z,100882.16
2022-08-09T00:45:34.922Z,100883.28
2022-08-09T00:48:05.590Z,100891.88
2022-08-09T00:50:33.728Z,100884.81
2022-08-09T00:53:10.326Z,100896.16
2022-08-09T00:56:05.130Z,100888.34
2022-08-09T00:58:27.886Z,100889.59
2022-08-09T01:00:59.019Z,100880.41
2022-08-09T01:03:36.425Z,100883.12
2022-08-09T01:06:17.560Z,100880.84
2022-08-09T01:08:55.946Z,100877.00
2022-08-09T01:11:39.665Z,100875.34
2022-08-09T01:14:17.429Z,100872.84
2022-08-09T01:16:51.009Z,100875.94
2022-08-09T01:19:57.265Z,100877.31
2022-08-09T01:22:46.758Z,100875.62
2022-08-09T01:25:48.835Z,100873.47
2022-08-09T01:28:22.564Z,100876.75
2022-08-09T01:30:59.104Z,100868.53
2022-08-09T01:33:35.195Z,100872.84
2022-08-09T01:36:14.990Z,100868.41
2022-08-09T01:38:47.890Z,100872.66
2022-08-09T01:41:26.083Z,100872.69
2022-08-09T01:44:04.968Z,100870.78
2022-08-09T01:46:36.323Z,100873.53
2022-08-09T01:49:14.981Z,100879.09
2022-08-09T01:51:54.419Z,100869.94
2022-08-09T01:54:30.238Z,100863.56
2022-08-09T01:57:11.990Z,100880.13
2022-08-09T01:59:51.521Z,100874.81
2022-08-09T02:02:31.177Z,100875.91
2022-08-09T02:05:05.439Z,100877.69
2022-08-09T02:08:39.538Z,100873.69
2022-08-09T02:10:56.887Z,100868.59
2022-08-09T02:13:37.549Z,100872.19
2022-08-09T02:16:11.438Z,100882.31
2022-08-09T02:18:42.903Z,100879.12
2022-08-09T02:21:22.090Z,100874.44
2022-08-09T02:23:54.828Z,100876.09
2022-08-09T02:26:27.664Z,100873.91
2022-08-09T02:28:59.911Z,100877.31
2022-08-09T02:31:35.583Z,100868.25
2022-08-09T02:34:25.707Z,100871.56
2022-08-09T02:37:05.340Z,100875.16
2022-08-09T02:39:42.048Z,100877.59
2022-08-09T02:42:17.197Z,100886.31
2022-08-09T02:44:49.440Z,100878.25
2022-08-09T02:47:20.045Z,100882.28
2022-08-09T02:50:02.025Z,100879.19
2022-08-09T02:52:37.499Z,100880.66
2022-08-09T02:55:20.590Z,100877.19
2022-08-09T02:58:00.260Z,100880.50
2022-08-09T03:00:58.108Z,100878.25
2022-08-09T03:04:13.204Z,100889.16
2022-08-09T03:06:17.909Z,100894.37
2022-08-09T03:08:48.284Z,100907.06
2022-08-09T03:12:06.693Z,100901.34
2022-08-09T03:14:10.055Z,100903.28
2022-08-09T03:16:42.011Z,100904.81
2022-08-09T03:19:52.865Z,100905.06
2022-08-09T03:22:12.326Z,100905.69
2022-08-09T03:25:16.153Z,100906.47
2022-08-09T03:27:49.116Z,100906.38
2022-08-09T03:30:29.638Z,100914.72
2022-08-09T03:33:11.066Z,100908.16
2022-08-09T03:36:11.346Z,100922.09
2022-08-09T03:38:30.500Z,100916.75
2022-08-09T03:40:58.610Z,100911.19
2022-08-09T03:43:31.449Z,100916.75
2022-08-09T03:46:27.283Z,100916.47
2022-08-09T03:48:55.184Z,100900.94
2022-08-09T03:51:56.535Z,100897.53
2022-08-09T03:54:14.866Z,100904.09
2022-08-09T03:56:46.652Z,100903.12
2022-08-09T03:59:20.863Z,100898.78
2022-08-09T04:01:56.599Z,100899.09
2022-08-09T04:04:32.539Z,100902.38
2022-08-09T04:07:04.967Z,100900.03
2022-08-09T04:09:41.622Z,100903.03
2022-08-09T04:12:30.976Z,100901.25
2022-08-09T04:15:02.586Z,100901.56
2022-08-09T04:17:42.420Z,100901.03
2022-08-09T04:20:13.689Z,100897.87
2022-08-09T04:22:44.294Z,100905.59
2022-08-09T04:25:13.172Z,100902.69
2022-08-09T04:27:49.008Z,100897.06
2022-08-09T04:30:28.872Z,100898.41
2022-08-09T04:32:56.955Z,100908.91
2022-08-09T04:35:24.908Z,100904.69
2022-08-09T04:37:57.029Z,100900.25
2022-08-09T04:40:45.275Z,100905.03
2022-08-09T04:43:15.720Z,100906.34
2022-08-09T04:45:53.723Z,100911.03
2022-08-09T04:48:23.886Z,100909.13
2022-08-09T04:51:01.686Z,100900.84
2022-08-09T04:53:31.358Z,100892.59
2022-08-09T04:55:59.880Z,100888.56
2022-08-09T04:58:29.903Z,100894.41
2022-08-09T05:01:01.715Z,100892.59
2022-08-09T05:03:40.798Z,100894.13
2022-08-09T05:06:27.211Z,100900.09
2022-08-09T05:09:00.487Z,100898.53
2022-08-09T05:11:30.400Z,100907.75
2022-08-09T05:13:58.817Z,100906.44
2022-08-09T05:16:31.670Z,100914.56
2022-08-09T05:19:00.724Z,100914.81
2022-08-09T05:21:46.852Z,100912.03
2022-08-09T05:24:15.922Z,100907.50
2022-08-09T05:26:46.293Z,100914.34
2022-08-09T05:29:21.318Z,100923.06
2022-08-09T05:31:58.869Z,100914.81
2022-08-09T05:34:31.067Z,100907.53
2022-08-09T05:37:06.621Z,100920.25
2022-08-09T05:39:43.867Z,100915.13
2022-08-09T05:42:20.864Z,100922.38
2022-08-09T05:44:52.211Z,100922.53
2022-08-09T05:47:21.779Z,100924.59
2022-08-09T05:50:29.934Z,100917.88
2022-08-09T05:52:41.991Z,100931.44
2022-08-09T05:55:20.621Z,100930.16
2022-08-09T05:57:51.342Z,100928.87
2022-08-09T06:00:28.963Z,100924.50
2022-08-09T06:03:02.725Z,100922.47
2022-08-09T06:05:57.073Z,100919.06
2022-08-09T06:08:24.392Z,100920.69
2022-08-09T06:10:55.415Z,100920.53
2022-08-09T06:13:24.703Z,100915.63
2022-08-09T06:15:52.981Z,100930.31
2022-08-09T06:18:24.808Z,100931.78
2022-08-09T06:20:58.433Z,100924.06
2022-08-09T06:23:57.902Z,100929.13
2022-08-09T06:26:21.113Z,100925.69
2022-08-09T06:28:59.894Z,100939.31
2022-08-09T06:31:39.828Z,100930.62
2022-08-09T06:34:22.587Z,100937.28
2022-08-09T06:36:59.039Z,100940.19
2022-08-09T06:39:48.421Z,100943.25
2022-08-09T06:42:24.415Z,100944.72
2022-08-09T06:44:54.341Z,100940.16
2022-08-09T06:47:23.584Z,100939.28
2022-08-09T06:50:13.637Z,100931.91
2022-08-09T06:52:46.920Z,100936.81
2022-08-09T06:55:17.408Z,100939.97
2022-08-09T06:58:03.388Z,100942.47
2022-08-09T07:00:55.528Z,100941.19
2022-08-09T07:03:27.652Z,100940.22
2022-08-09T07:06:03.513Z,100942.19
2022-08-09T07:08:37.193Z,100939.50
2022-08-09T07:11:08.152Z,100946.47
2022-08-09T07:13:44.927Z,100935.97
2022-08-09T07:16:41.008Z,100933.69
2022-08-09T07:19:15.477Z,100939.59
2022-08-09T07:21:57.928Z,100941.28
2022-08-09T07:24:32.536Z,100942.56
2022-08-09T07:27:27.263Z,100943.06
2022-08-09T07:30:00.393Z,100931.03
2022-08-09T07:32:32.974Z,100935.09
2022-08-09T07:35:10.334Z,100950.62
2022-08-09T07:37:45.626Z,100943.00
2022-08-09T07:40:17.904Z,100938.84
2022-08-09T07:42:50.099Z,100954.03
2022-08-09T07:45:23.741Z,100952.94
2022-08-09T07:48:25.810Z,100950.34
2022-08-09T07:51:10.116Z,100945.75
2022-08-09T07:54:04.991Z,100948.69
2022-08-09T07:56:44.715Z,100954.03
2022-08-09T07:59:33.690Z,100946.81
2022-08-09T08:02:05.484Z,100952.13
2022-08-09T08:04:34.272Z,100951.06
2022-08-09T08:07:09.472Z,100955.87
2022-08-09T08:09:55.287Z,100951.47
2022-08-09T08:12:43.193Z,100958.72
2022-08-09T08:15:16.928Z,100959.81
2022-08-09T08:17:53.570Z,100952.16
2022-08-09T08:20:28.692Z,100950.62
2022-08-09T08:23:01.640Z,100939.53
2022-08-09T08:25:43.815Z,100946.38
2022-08-09T08:28:14.271Z,100953.47
2022-08-09T08:30:44.554Z,100951.78
2022-08-09T08:33:24.092Z,100954.72
2022-08-09T08:36:00.479Z,100949.94
2022-08-09T08:38:31.666Z,100956.69
2022-08-09T08:41:01.777Z,100961.81
2022-08-09T08:43:34.845Z,100958.09
2022-08-09T08:46:31.974Z,100955.91
2022-08-09T08:48:55.555Z,100957.03
2022-08-09T08:51:23.968Z,100961.69
2022-08-09T08:54:04.308Z,100957.03
2022-08-09T08:56:37.888Z,100957.09
2022-08-09T08:59:19.892Z,100955.22
2022-08-09T09:01:52.983Z,100953.19
2022-08-09T09:04:31.368Z,100951.38
2022-08-09T09:07:10.062Z,100952.97
2022-08-09T09:09:58.371Z,100949.13
2022-08-09T09:12:34.246Z,100946.44
2022-08-09T09:15:05.764Z,100956.81
2022-08-09T09:17:48.571Z,100952.97
2022-08-09T09:20:17.345Z,100949.91
2022-08-09T09:22:56.797Z,100948.38
2022-08-09T09:26:01.716Z,100945.72
2022-08-09T09:29:02.875Z,100949.88
2022-08-09T09:32:14.782Z,100941.47
2022-08-09T09:34:14.621Z,100945.28
2022-08-09T09:36:50.925Z,100947.59
2022-08-09T09:39:25.597Z,100949.09
2022-08-09T09:42:23.344Z,100950.69
2022-08-09T09:45:00.366Z,100941.44
2022-08-09T09:47:29.135Z,100945.28
2022-08-09T09:50:14.613Z,100941.81
2022-08-09T09:52:56.721Z,100953.38
2022-08-09T09:55:32.474Z,100954.53
2022-08-09T09:58:18.221Z,100956.47
2022-08-09T10:00:54.441Z,100952.59
2022-08-09T10:03:59.606Z,100947.22
2022-08-09T10:06:39.169Z,100951.44
2022-08-09T10:09:22.073Z,100947.62
2022-08-09T10:12:11.731Z,100954.12
2022-08-09T10:14:47.713Z,100956.81
2022-08-09T10:17:50.470Z,100957.22
2022-08-09T10:20:36.155Z,100948.28
2022-08-09T10:23:22.139Z,100950.69
2022-08-09T10:26:07.112Z,100950.59
2022-08-09T10:28:40.235Z,100952.19
2022-08-09T10:34:10.692Z,100938.00
2022-08-09T10:36:49.947Z,100946.78
2022-08-09T10:39:19.173Z,100945.59
2022-08-09T10:41:48.305Z,100939.13
2022-08-09T10:44:23.100Z,100937.59
2022-08-09T10:47:01.130Z,100939.16
2022-08-09T10:49:51.434Z,100927.59
2022-08-09T10:52:44.932Z,100935.25
2022-08-09T10:55:26.733Z,100928.00
2022-08-09T10:57:59.857Z,100935.19
2022-08-09T11:01:11.039Z,100927.59
2022-08-09T11:03:49.883Z,100932.22
2022-08-09T11:06:24.316Z,100927.22
2022-08-09T11:08:53.818Z,100916.06
2022-08-09T11:11:23.351Z,100911.47
2022-08-09T11:14:32.046Z,100917.97
2022-08-09T11:17:00.365Z,100913.56
2022-08-09T11:20:10.480Z,100911.78
2022-08-09T11:22:41.574Z,100911.78
2022-08-09T11:25:12.082Z,100909.78
2022-08-09T11:28:02.393Z,100908.94
2022-08-09T11:30:38.100Z,100910.59
2022-08-09T11:33:18.073Z,100902.13
2022-08-09T11:35:50.047Z,100904.34
2022-08-09T11:38:28.471Z,100902.19
2022-08-09T11:41:13.779Z,100899.00
2022-08-09T11:43:48.809Z,100902.88
2022-08-09T11:46:26.662Z,100906.41
2022-08-09T11:49:05.363Z,100906.06
2022-08-09T11:53:03.321Z,100908.75
2022-08-09T11:55:51.531Z,100903.38
2022-08-09T11:58:19.974Z,100904.16
2022-08-09T12:01:08.938Z,100901.09
2022-08-09T12:03:57.484Z,100896.47
2022-08-09T12:06:32.686Z,100898.37
2022-08-09T12:09:19.184Z,100907.19
2022-08-09T12:12:03.288Z,100907.47
2022-08-09T12:14:40.461Z,100902.09
2022-08-09T12:17:34.280Z,100905.97
2022-08-09T12:20:21.548Z,100891.28
2022-08-09T12:22:55.698Z,100892.16
2022-08-09T12:25:32.017Z,100888.72
2022-08-09T12:29:14.071Z,100888.91
2022-08-09T12:31:10.958Z,100885.16
2022-08-09T12:34:01.191Z,100890.91
2022-08-09T12:36:33.852Z,100876.81
2022-08-09T12:39:14.604Z,100872.94
2022-08-09T12:41:42.703Z,100873.72
2022-08-09T12:44:12.944Z,100867.97
2022-08-09T12:46:49.208Z,100870.63
2022-08-09T12:49:20.950Z,100869.91
2022-08-09T12:52:01.024Z,100867.56
2022-08-09T12:56:12.893Z,100858.69
2022-08-09T12:57:46.481Z,100853.59
2022-08-09T13:00:19.180Z,100856.97
2022-08-09T13:02:58.264Z,100864.03
2022-08-09T13:05:50.923Z,100856.34
2022-08-09T13:08:21.319Z,100861.41
2022-08-09T13:11:13.100Z,100852.06
2022-08-09T13:14:38.001Z,100862.84
2022-08-09T13:16:44.888Z,100853.59
2022-08-09T13:20:06.822Z,100856.34
2022-08-09T13:22:37.020Z,100853.22
2022-08-09T13:25:13.727Z,100847.06
2022-08-09T13:27:48.620Z,100848.19
2022-08-09T13:30:49.487Z,100842.03
2022-08-09T13:33:23.517Z,100845.19
2022-08-09T13:36:24.232Z,100846.72
2022-08-09T13:38:57.238Z,100844.28
2022-08-09T13:41:56.471Z,100845.16
2022-08-09T13:44:16.627Z,100843.63
2022-08-09T13:47:29.521Z,100847.13
2022-08-09T13:49:39.730Z,100830.22
2022-08-09T13:52:24.972Z,100834.44
2022-08-09T13:54:59.380Z,100837.88
2022-08-09T13:57:35.554Z,100834.47
2022-08-09T14:00:16.807Z,100841.09
2022-08-09T14:03:04.013Z,100834.47
2022-08-09T14:06:00.376Z,100840.69
2022-08-09T14:08:28.076Z,100834.53
2022-08-09T14:10:56.677Z,100835.31
2022-08-09T14:14:14.657Z,100846.81
2022-08-09T14:16:28.690Z,100847.84
2022-08-09T14:18:58.147Z,100845.22
2022-08-09T14:21:29.558Z,100854.41
2022-08-09T14:24:01.339Z,100856.31
2022-08-09T14:26:38.472Z,100857.09
2022-08-09T14:30:04.196Z,100846.47
2022-08-09T14:32:06.035Z,100855.22
2022-08-09T14:34:41.186Z,100863.66
2022-08-09T14:37:09.638Z,100850.19
2022-08-09T14:39:47.791Z,100855.84
2022-08-09T14:42:30.898Z,100847.44
2022-08-09T14:46:39.558Z,100855.25
2022-08-09T14:47:57.980Z,100853.31
2022-08-09T14:50:30.372Z,100859.28
2022-08-09T14:53:01.004Z,100855.53
2022-08-09T14:55:32.626Z,100849.75
2022-08-09T14:58:05.085Z,100856.53
2022-08-09T15:00:36.731Z,100851.88
2022-08-09T15:03:10.583Z,100846.34
2022-08-09T15:05:39.581Z,100851.28
2022-08-09T15:08:16.483Z,100860.09
2022-08-09T15:11:00.855Z,100850.72
2022-08-09T15:13:56.784Z,100855.72
2022-08-09T15:16:20.699Z,100858.09
2022-08-09T15:18:49.280Z,100856.72
2022-08-09T15:21:57.310Z,100865.78
2022-08-09T15:24:12.826Z,100873.63
2022-08-09T15:26:45.493Z,100867.75
2022-08-09T15:30:56.500Z,100870.53
2022-08-09T15:32:04.839Z,100864.16
2022-08-09T15:34:35.305Z,100873.81
2022-08-09T15:37:37.212Z,100871.44
2022-08-09T15:40:20.051Z,100867.50
2022-08-09T15:42:50.891Z,100873.22
2022-08-09T15:45:21.685Z,100879.62
2022-08-09T15:48:03.344Z,100876.44
2022-08-09T15:50:39.340Z,100874.72
2022-08-09T15:53:32.657Z,100883.03
2022-08-09T15:58:46.992Z,100886.12
2022-08-09T16:01:15.093Z,100889.75
2022-08-09T16:03:43.212Z,100890.94
2022-08-09T16:06:27.396Z,100884.22
2022-08-09T16:09:01.125Z,100900.88
2022-08-09T16:11:33.321Z,100892.22
2022-08-09T16:14:07.088Z,100902.03
2022-08-09T16:16:38.095Z,100892.19
2022-08-09T16:19:08.617Z,100908.88
2022-08-09T16:21:37.843Z,100899.78
2022-08-09T16:24:13.033Z,100904.41
2022-08-09T16:26:56.767Z,100912.47
2022-08-09T16:29:37.466Z,100914.56
2022-08-09T16:32:19.294Z,100920.47
2022-08-09T16:34:58.280Z,100922.66
2022-08-09T16:37:55.658Z,100924.31
2022-08-09T16:40:29.859Z,100938.91
2022-08-09T16:43:04.845Z,100941.97
2022-08-09T16:45:32.762Z,100936.75
2022-08-09T16:48:42.194Z,100946.91
2022-08-09T16:50:59.774Z,100941.69
2022-08-09T16:53:36.258Z,100942.00
2022-08-09T16:56:09.931Z,100939.31
2022-08-09T16:58:42.744Z,100941.03
2022-08-09T17:01:19.382Z,100942.91
2022-08-09T17:03:51.679Z,100960.16
2022-08-09T17:06:29.178Z,100942.41
2022-08-09T17:09:17.822Z,100945.22
2022-08-09T17:11:52.627Z,100951.19
2022-08-09T17:14:27.985Z,100947.09
2022-08-09T17:17:03.869Z,100943.53
2022-08-09T17:20:29.288Z,100942.41
2022-08-09T17:22:49.506Z,100943.28
2022-08-09T17:25:18.090Z,100945.84
2022-08-09T17:27:48.698Z,100952.88
2022-08-09T17:30:20.419Z,100953.59
2022-08-09T17:32:48.575Z,100958.66
2022-08-09T17:35:16.410Z,100952.00
2022-08-09T17:38:12.863Z,100951.81
2022-08-09T17:40:34.642Z,100948.03
2022-08-09T17:43:32.731Z,100949.56
2022-08-09T17:46:02.633Z,100963.34
2022-08-09T17:48:39.234Z,100966.69
2022-08-09T17:51:18.779Z,100961.16
2022-08-09T17:53:54.792Z,100964.38
2022-08-09T17:56:35.547Z,100965.69
2022-08-09T17:59:09.146Z,100966.22
2022-08-09T18:02:03.475Z,100965.31
2022-08-09T18:04:28.016Z,100962.75
2022-08-09T18:06:56.015Z,100976.69
2022-08-09T18:09:40.935Z,100973.69
2022-08-09T18:12:19.434Z,100983.75
2022-08-09T18:14:54.753Z,100990.38
2022-08-09T18:18:01.435Z,100998.09
2022-08-09T18:20:55.833Z,100993.00
2022-08-09T18:23:05.106Z,101000.91
2022-08-09T18:25:53.134Z,100999.09
2022-08-09T18:30:34.665Z,101012.03
2022-08-09T18:31:12.242Z,101011.28
2022-08-09T18:33:40.707Z,101013.78
2022-08-09T18:36:14.154Z,101016.81
2022-08-09T18:38:57.505Z,101011.72
2022-08-09T18:41:28.801Z,101025.75
2022-08-09T18:43:58.046Z,101018.56
2022-08-09T18:46:51.471Z,101018.38
2022-08-09T18:49:27.054Z,101031.78
2022-08-09T18:51:59.534Z,101024.38
2022-08-09T18:54:28.823Z,101027.22
2022-08-09T18:57:05.440Z,101025.66
2022-08-09T18:59:43.830Z,101025.94
2022-08-09T19:02:18.502Z,101025.12
2022-08-09T19:05:04.294Z,101023.78
2022-08-09T19:07:36.056Z,101026.16
2022-08-09T19:10:15.505Z,101026.63
2022-08-09T19:13:18.567Z,101031.94
2022-08-09T19:15:35.679Z,101028.31
2022-08-09T19:18:07.282Z,101029.22
2022-08-09T19:20:45.486Z,101026.66
2022-08-09T19:24:37.882Z,101024.59
2022-08-09T19:26:13.967Z,101023.50
2022-08-09T19:28:48.820Z,101023.91
2022-08-09T19:31:17.148Z,101034.81
2022-08-09T19:33:44.937Z,101025.75
2022-08-09T19:36:13.754Z,101034.47
2022-08-09T19:38:42.886Z,101041.44
2022-08-09T19:41:10.749Z,101036.75
2022-08-09T19:44:02.088Z,101037.53
2022-08-09T19:46:34.951Z,101040.22
2022-08-09T19:50:09.906Z,101031.91
2022-08-09T19:51:57.046Z,101042.22
2022-08-09T19:54:25.706Z,101050.34
2022-08-09T19:56:55.057Z,101038.72
2022-08-09T19:59:58.546Z,101041.75
2022-08-09T20:02:17.365Z,101042.44
2022-08-09T20:05:02.164Z,101040.41
2022-08-09T20:07:59.097Z,101038.41
2022-08-09T20:10:34.286Z,101039.66
2022-08-09T20:13:06.905Z,101048.97
2022-08-09T20:16:37.175Z,101045.44
2022-08-09T20:18:27.605Z,101052.75
2022-08-09T20:20:59.845Z,101061.41
2022-08-09T20:23:38.579Z,101052.19
2022-08-09T20:26:10.111Z,101062.06
2022-08-09T20:28:48.801Z,101059.63
2022-08-09T20:31:18.696Z,101049.75
2022-08-09T20:33:46.974Z,101055.31
2022-08-09T20:36:27.077Z,101048.53
2022-08-09T20:39:28.952Z,101050.75
2022-08-09T20:41:43.461Z,101055.03
2022-08-09T20:44:11.160Z,101050.19
2022-08-09T20:46:42.859Z,101053.75
2022-08-09T20:49:15.730Z,101050.69
2022-08-09T20:51:50.776Z,101052.28
2022-08-09T20:54:19.103Z,101058.38
2022-08-09T20:56:49.531Z,101047.63
2022-08-09T20:59:50.134Z,101047.84
2022-08-09T21:02:18.327Z,101052.47
2022-08-09T21:05:54.935Z,101051.63
2022-08-09T21:07:40.433Z,101062.88
2022-08-09T21:10:11.551Z,101065.47
2022-08-09T21:12:39.550Z,101066.94
2022-08-09T21:15:12.768Z,101063.06
2022-08-09T21:18:11.875Z,101055.56
2022-08-09T21:20:30.712Z,101063.19
2022-08-09T21:23:00.472Z,101064.50
2022-08-09T21:25:55.706Z,101061.25
2022-08-09T21:28:36.098Z,101055.31
2022-08-09T21:31:18.181Z,101053.09
2022-08-09T21:33:50.483Z,101055.97
2022-08-09T21:36:20.920Z,101057.66
2022-08-09T21:38:57.430Z,101056.75
2022-08-09T21:42:05.569Z,101058.81
2022-08-09T21:44:34.764Z,101060.16
2022-08-09T21:47:07.486Z,101063.59
2022-08-09T21:49:39.571Z,101057.06
2022-08-09T21:52:14.440Z,101065.59
2022-08-09T21:54:50.655Z,101062.78
2022-08-09T21:57:38.943Z,101063.03
2022-08-09T22:00:16.431Z,101070.09
2022-08-09T22:02:44.383Z,101070.09
2022-08-09T22:05:35.375Z,101075.38
2022-08-09T22:08:13.856Z,101067.41
2022-08-09T22:11:50.437Z,101062.56
2022-08-09T22:13:34.850Z,101068.69
2022-08-09T22:16:08.575Z,101067.37
2022-08-09T22:18:38.576Z,101063.78
2022-08-09T22:21:22.199Z,101075.22
2022-08-09T22:23:59.212Z,101077.59
2022-08-09T22:26:35.164Z,101067.13
2022-08-09T22:29:10.415Z,101064.91
2022-08-09T22:31:50.344Z,101069.25
2022-08-09T22:34:28.572Z,101066.16
2022-08-09T22:36:58.422Z,101066.34
2022-08-09T22:39:55.512Z,101062.62
2022-08-09T22:42:21.364Z,101053.94
2022-08-09T22:45:00.423Z,101055.72
2022-08-09T22:48:10.775Z,101064.53
2022-08-09T22:50:32.689Z,101064.59
2022-08-09T22:53:03.497Z,101063.16
2022-08-09T22:56:00.674Z,101060.06
2022-08-09T22:58:32.499Z,101057.63
2022-08-09T23:01:06.015Z,101061.00
2022-08-09T23:04:05.645Z,101056.19
2022-08-09T23:06:35.689Z,101049.75
2022-08-09T23:09:04.848Z,101044.00
2022-08-09T23:11:32.845Z,101049.53
2022-08-09T23:14:00.607Z,101048.72
2022-08-09T23:16:28.221Z,101044.66
2022-08-09T23:18:56.180Z,101050.25
2022-08-09T23:21:25.081Z,101052.16
2022-08-09T23:24:05.422Z,101051.97
2022-08-09T23:26:36.036Z,101043.66
2022-08-09T23:29:11.297Z,101050.56
2022-08-09T23:31:39.280Z,101050.22
2022-08-09T23:34:07.407Z,101046.91
2022-08-09T23:36:36.037Z,101056.91
2022-08-09T23:39:05.595Z,101055.50
2022-08-09T23:41:34.127Z,101052.03
2022-08-09T23:44:03.211Z,101047.59
2022-08-09T23:46:31.995Z,101046.97
2022-08-09T23:49:00.804Z,101044.66
2022-08-09T23:51:28.813Z,101047.00
2022-08-09T23:54:02.210Z,101042.00
2022-08-09T23:56:53.723Z,101042.44
2022-08-09T23:59:21.690Z,101047.06
